Airfield :







YOU CAN JOIN US ON...

 
LOGIN :

Register | Disclaimer

   EN    FR    IT 

 









Legend :    VFR   Marginal VFR   IFR   Intensive IFR   Very Intensive IFR
Visi :
Ceiling :
>= 8 km
>= 3000ft
5 to 8 km
1000 to 3000 ft
1500m to 5 km
500 to 1000 ft
800 to 1500m
200 to 500 ft
< 800m
< 200 ft
Symbols :   Thunderstorms  Fog  Heavy snow  Heavy precipitations  Wind > 20 kt






- Airport Elevation : 39 ft
- IATA code : YNA


CYNA - Natashquan

CURRENT METAR :
  • 152041Z AUTO 27011G16KT 9SM SCT008 OVC034 08/07 A2986 RMK SLP113

EXPIRED METARs :
  • 152028Z AUTO 27011KT 9SM -RA BKN006 OVC030 08/07 A2986 RMK SLP113
  • 152013Z AUTO 27009KT 9SM BKN006 BKN028 OVC060 08/08 A2986 RMK SLP113
  • 152000Z AUTO 26007KT 9SM -RA FEW006 SCT028 OVC060 08/08 A2985 RMK SLP111
  • 151943Z AUTO 27010KT 8SM -RA FEW006 SCT018 OVC060 08/08 A2985 RMK SLP110
  • 151928Z AUTO 27011KT 9SM OVC016 08/08 A2985 RMK SLP111
  • 151907Z AUTO 27009KT 9SM -RA SCT005 SCT008 OVC014 08/08 A2985 RMK SLP111
  • 151849Z AUTO 18010G16KT 2SM -RA BR OVC005 09/09 A2985 RMK VIS VRB 1 1/4-3 SLP110
  • 151846Z AUTO 19011G17KT 2 1/2SM -RA BR OVC005 09/09 A2985 RMK VIS VRB 1 1/2-3 SLP110
  • 151828Z AUTO 17013G18KT 3SM -RA BR OVC005 09/09 A2985 RMK SLP111

TAF AMD TAF CYNA
Valid from the 15 at 20:00 until the 16 at 08:00 UTC


152032Z 1520/1608 27010KT 5SM -RA BR BKN006 OVC030
TEMPO 1520/1521 P6SM NSW SCT006 OVC030
FM152100 27010KT P6SM OVC015
TEMPO 1521/1608 BKN025
BECMG 1522/1523 FEW050 RMK FCST BASED ON AUTO OBS. NXT FCST BY 160200Z



MET'MAP, your aeronautical weather chart ! - Copyright ORBIFLY December 2007 - Disclaimer

ORBIFLY MET'MAP TEAM :

Programming & Development : Alexandra Zaïnal
Concept & Development : Baudouin d'Aumeries
Co-Development & Prog : Marc-Olivier Méhu
Technical & hardware support : Manuel Goepfert

Contact : metmap@orbifly.com




SOURCES & CREDITS :

   NOAA